sensor_id;sensor_type;location;lat;lon;timestamp;temperature;humidity
19952;DHT22;10137;49.406;19.484;2023-05-07T00:00:46;11.20;99.90
19952;DHT22;10137;49.406;19.484;2023-05-07T00:03:15;11.20;99.90
19952;DHT22;10137;49.406;19.484;2023-05-07T00:05:43;11.30;99.90
19952;DHT22;10137;49.406;19.484;2023-05-07T00:08:11;11.20;99.90
19952;DHT22;10137;49.406;19.484;2023-05-07T00:10:41;11.10;99.90
19952;DHT22;10137;49.406;19.484;2023-05-07T00:13:09;11.20;99.90
19952;DHT22;10137;49.406;19.484;2023-05-07T00:15:41;11.10;99.90
19952;DHT22;10137;49.406;19.484;2023-05-07T00:18:14;11.10;99.90
19952;DHT22;10137;49.406;19.484;2023-05-07T00:20:43;11.20;99.90
19952;DHT22;10137;49.406;19.484;2023-05-07T00:23:11;11.30;99.90
19952;DHT22;10137;49.406;19.484;2023-05-07T00:25:39;11.30;99.90
19952;DHT22;10137;49.406;19.484;2023-05-07T00:28:09;11.30;99.90
19952;DHT22;10137;49.406;19.484;2023-05-07T00:30:38;11.30;99.90
19952;DHT22;10137;49.406;19.484;2023-05-07T00:33:06;11.40;99.90
19952;DHT22;10137;49.406;19.484;2023-05-07T00:35:35;11.40;99.90
19952;DHT22;10137;49.406;19.484;2023-05-07T00:38:04;11.30;99.90
19952;DHT22;10137;49.406;19.484;2023-05-07T00:40:34;11.30;99.90
19952;DHT22;10137;49.406;19.484;2023-05-07T00:43:03;11.30;99.90
19952;DHT22;10137;49.406;19.484;2023-05-07T00:45:33;11.30;99.90
19952;DHT22;10137;49.406;19.484;2023-05-07T00:48:03;11.30;99.90
19952;DHT22;10137;49.406;19.484;2023-05-07T00:50:32;11.20;99.90
19952;DHT22;10137;49.406;19.484;2023-05-07T00:53:02;11.10;99.90
19952;DHT22;10137;49.406;19.484;2023-05-07T00:55:30;11.00;99.90
19952;DHT22;10137;49.406;19.484;2023-05-07T00:57:59;11.00;99.90
19952;DHT22;10137;49.406;19.484;2023-05-07T01:00:27;10.80;99.90
19952;DHT22;10137;49.406;19.484;2023-05-07T01:02:55;10.90;99.90
19952;DHT22;10137;49.406;19.484;2023-05-07T01:05:25;10.90;99.90
19952;DHT22;10137;49.406;19.484;2023-05-07T01:07:55;11.00;99.90
19952;DHT22;10137;49.406;19.484;2023-05-07T01:10:26;11.10;99.90
19952;DHT22;10137;49.406;19.484;2023-05-07T01:12:58;11.10;99.90
19952;DHT22;10137;49.406;19.484;2023-05-07T01:15:27;11.00;99.90
19952;DHT22;10137;49.406;19.484;2023-05-07T01:17:55;11.00;99.90
19952;DHT22;10137;49.406;19.484;2023-05-07T01:20:28;11.00;99.90
19952;DHT22;10137;49.406;19.484;2023-05-07T01:22:57;11.00;99.90
19952;DHT22;10137;49.406;19.484;2023-05-07T01:25:27;11.00;99.90
19952;DHT22;10137;49.406;19.484;2023-05-07T01:27:55;11.00;99.90
19952;DHT22;10137;49.406;19.484;2023-05-07T01:30:23;10.90;99.90
19952;DHT22;10137;49.406;19.484;2023-05-07T01:32:56;10.90;99.90
19952;DHT22;10137;49.406;19.484;2023-05-07T01:35:29;10.90;99.90
19952;DHT22;10137;49.406;19.484;2023-05-07T01:37:59;10.80;99.90
19952;DHT22;10137;49.406;19.484;2023-05-07T01:40:31;10.80;99.90
19952;DHT22;10137;49.406;19.484;2023-05-07T01:42:59;10.90;99.90
19952;DHT22;10137;49.406;19.484;2023-05-07T01:45:29;10.90;99.90
19952;DHT22;10137;49.406;19.484;2023-05-07T01:47:58;10.90;99.90
19952;DHT22;10137;49.406;19.484;2023-05-07T01:50:27;10.80;99.90
19952;DHT22;10137;49.406;19.484;2023-05-07T01:52:56;10.90;99.90
19952;DHT22;10137;49.406;19.484;2023-05-07T01:55:29;10.90;99.90
19952;DHT22;10137;49.406;19.484;2023-05-07T01:57:58;10.90;99.90
19952;DHT22;10137;49.406;19.484;2023-05-07T02:00:26;10.90;99.90
19952;DHT22;10137;49.406;19.484;2023-05-07T02:02:55;10.90;99.90
19952;DHT22;10137;49.406;19.484;2023-05-07T02:05:24;10.90;99.90
19952;DHT22;10137;49.406;19.484;2023-05-07T02:07:52;10.90;99.90
19952;DHT22;10137;49.406;19.484;2023-05-07T02:10:20;10.90;99.90
19952;DHT22;10137;49.406;19.484;2023-05-07T02:12:50;10.90;99.90
19952;DHT22;10137;49.406;19.484;2023-05-07T02:15:18;10.90;99.90
19952;DHT22;10137;49.406;19.484;2023-05-07T02:18:01;10.90;99.90
19952;DHT22;10137;49.406;19.484;2023-05-07T02:20:29;10.80;99.90
19952;DHT22;10137;49.406;19.484;2023-05-07T02:22:58;10.80;99.90
19952;DHT22;10137;49.406;19.484;2023-05-07T02:25:26;10.80;99.90
19952;DHT22;10137;49.406;19.484;2023-05-07T02:27:57;10.70;99.90
19952;DHT22;10137;49.406;19.484;2023-05-07T02:30:26;10.60;99.90
19952;DHT22;10137;49.406;19.484;2023-05-07T02:32:54;10.60;99.90
19952;DHT22;10137;49.406;19.484;2023-05-07T02:35:24;10.60;99.90
19952;DHT22;10137;49.406;19.484;2023-05-07T02:37:52;10.50;99.90
19952;DHT22;10137;49.406;19.484;2023-05-07T02:40:23;10.50;99.90
19952;DHT22;10137;49.406;19.484;2023-05-07T02:42:54;10.50;99.90
19952;DHT22;10137;49.406;19.484;2023-05-07T02:45:24;10.50;99.90
19952;DHT22;10137;49.406;19.484;2023-05-07T02:47:52;10.50;99.90
19952;DHT22;10137;49.406;19.484;2023-05-07T02:50:22;10.40;99.90
19952;DHT22;10137;49.406;19.484;2023-05-07T02:52:49;10.40;99.90
19952;DHT22;10137;49.406;19.484;2023-05-07T02:55:17;10.40;99.90
19952;DHT22;10137;49.406;19.484;2023-05-07T02:57:45;10.40;99.90
19952;DHT22;10137;49.406;19.484;2023-05-07T03:00:16;10.40;99.90
19952;DHT22;10137;49.406;19.484;2023-05-07T03:02:51;10.30;99.90
19952;DHT22;10137;49.406;19.484;2023-05-07T03:05:19;10.30;99.90
19952;DHT22;10137;49.406;19.484;2023-05-07T03:07:47;10.20;99.90
19952;DHT22;10137;49.406;19.484;2023-05-07T03:10:15;10.30;99.90
19952;DHT22;10137;49.406;19.484;2023-05-07T03:12:43;10.30;99.90
19952;DHT22;10137;49.406;19.484;2023-05-07T03:15:11;10.30;99.90
19952;DHT22;10137;49.406;19.484;2023-05-07T03:17:40;10.30;99.90
19952;DHT22;10137;49.406;19.484;2023-05-07T03:20:11;10.20;99.90
19952;DHT22;10137;49.406;19.484;2023-05-07T03:22:40;10.20;99.90
19952;DHT22;10137;49.406;19.484;2023-05-07T03:25:09;10.10;99.90
19952;DHT22;10137;49.406;19.484;2023-05-07T03:27:37;10.10;99.90
19952;DHT22;10137;49.406;19.484;2023-05-07T03:30:07;10.10;99.90
19952;DHT22;10137;49.406;19.484;2023-05-07T03:32:38;10.10;99.90
19952;DHT22;10137;49.406;19.484;2023-05-07T03:35:06;10.00;99.90
19952;DHT22;10137;49.406;19.484;2023-05-07T03:37:40;10.00;99.90
19952;DHT22;10137;49.406;19.484;2023-05-07T03:40:09;10.00;99.90
19952;DHT22;10137;49.406;19.484;2023-05-07T03:42:39;10.00;99.90
19952;DHT22;10137;49.406;19.484;2023-05-07T03:45:08;10.00;99.90
19952;DHT22;10137;49.406;19.484;2023-05-07T03:47:36;9.90;99.90
19952;DHT22;10137;49.406;19.484;2023-05-07T03:50:05;9.90;99.90
19952;DHT22;10137;49.406;19.484;2023-05-07T03:52:33;9.90;99.90
19952;DHT22;10137;49.406;19.484;2023-05-07T03:55:03;9.90;99.90
19952;DHT22;10137;49.406;19.484;2023-05-07T03:57:32;9.80;99.90
19952;DHT22;10137;49.406;19.484;2023-05-07T04:00:00;9.90;99.90
19952;DHT22;10137;49.406;19.484;2023-05-07T04:02:29;9.90;99.90
19952;DHT22;10137;49.406;19.484;2023-05-07T04:04:57;9.90;99.90
19952;DHT22;10137;49.406;19.484;2023-05-07T04:07:25;9.90;99.90
19952;DHT22;10137;49.406;19.484;2023-05-07T04:09:53;9.90;99.90
19952;DHT22;10137;49.406;19.484;2023-05-07T04:12:26;9.90;99.90
19952;DHT22;10137;49.406;19.484;2023-05-07T04:14:55;10.00;99.90
19952;DHT22;10137;49.406;19.484;2023-05-07T04:17:23;9.90;99.90
19952;DHT22;10137;49.406;19.484;2023-05-07T04:19:51;9.90;99.90
19952;DHT22;10137;49.406;19.484;2023-05-07T04:22:20;10.00;99.90
19952;DHT22;10137;49.406;19.484;2023-05-07T04:24:48;10.00;99.90
19952;DHT22;10137;49.406;19.484;2023-05-07T04:27:17;10.00;99.90
19952;DHT22;10137;49.406;19.484;2023-05-07T04:29:46;10.00;99.90
19952;DHT22;10137;49.406;19.484;2023-05-07T04:32:16;10.00;99.90
19952;DHT22;10137;49.406;19.484;2023-05-07T04:34:44;10.10;99.90
19952;DHT22;10137;49.406;19.484;2023-05-07T04:37:12;10.10;99.90
19952;DHT22;10137;49.406;19.484;2023-05-07T04:39:41;10.10;99.90
19952;DHT22;10137;49.406;19.484;2023-05-07T04:42:09;10.10;99.90
19952;DHT22;10137;49.406;19.484;2023-05-07T04:44:37;10.10;99.90
19952;DHT22;10137;49.406;19.484;2023-05-07T04:47:07;10.10;99.90
19952;DHT22;10137;49.406;19.484;2023-05-07T04:49:35;10.10;99.90
19952;DHT22;10137;49.406;19.484;2023-05-07T04:52:03;10.10;99.90
19952;DHT22;10137;49.406;19.484;2023-05-07T04:54:31;10.10;99.90
19952;DHT22;10137;49.406;19.484;2023-05-07T04:57:00;10.10;99.90
19952;DHT22;10137;49.406;19.484;2023-05-07T04:59:28;10.10;99.90
19952;DHT22;10137;49.406;19.484;2023-05-07T05:01:55;10.10;99.90
19952;DHT22;10137;49.406;19.484;2023-05-07T05:04:25;10.10;99.90
19952;DHT22;10137;49.406;19.484;2023-05-07T05:06:57;10.20;99.90
19952;DHT22;10137;49.406;19.484;2023-05-07T05:09:25;10.20;99.90
19952;DHT22;10137;49.406;19.484;2023-05-07T05:11:54;10.10;99.90
19952;DHT22;10137;49.406;19.484;2023-05-07T05:14:22;10.10;99.90
19952;DHT22;10137;49.406;19.484;2023-05-07T05:16:50;10.10;99.90
19952;DHT22;10137;49.406;19.484;2023-05-07T05:19:18;10.20;99.90
19952;DHT22;10137;49.406;19.484;2023-05-07T05:21:48;10.20;99.90
19952;DHT22;10137;49.406;19.484;2023-05-07T05:24:16;10.20;99.90
19952;DHT22;10137;49.406;19.484;2023-05-07T05:26:44;10.20;99.90
19952;DHT22;10137;49.406;19.484;2023-05-07T05:29:12;10.20;99.90
19952;DHT22;10137;49.406;19.484;2023-05-07T05:31:41;10.10;99.90
19952;DHT22;10137;49.406;19.484;2023-05-07T05:34:12;10.10;99.90
19952;DHT22;10137;49.406;19.484;2023-05-07T05:36:40;10.10;99.90
19952;DHT22;10137;49.406;19.484;2023-05-07T05:39:10;10.10;99.90
19952;DHT22;10137;49.406;19.484;2023-05-07T05:41:39;10.10;99.90
19952;DHT22;10137;49.406;19.484;2023-05-07T05:44:09;10.10;99.90
19952;DHT22;10137;49.406;19.484;2023-05-07T05:46:37;10.10;99.90
19952;DHT22;10137;49.406;19.484;2023-05-07T05:49:06;10.10;99.90
19952;DHT22;10137;49.406;19.484;2023-05-07T05:51:34;10.20;99.90
19952;DHT22;10137;49.406;19.484;2023-05-07T05:54:02;10.10;99.90
19952;DHT22;10137;49.406;19.484;2023-05-07T05:56:36;10.10;99.90
19952;DHT22;10137;49.406;19.484;2023-05-07T05:59:04;10.00;99.90
19952;DHT22;10137;49.406;19.484;2023-05-07T06:01:32;10.10;99.90
19952;DHT22;10137;49.406;19.484;2023-05-07T06:04:00;10.10;99.90
19952;DHT22;10137;49.406;19.484;2023-05-07T06:06:29;10.20;99.90
19952;DHT22;10137;49.406;19.484;2023-05-07T06:08:58;10.20;99.90
19952;DHT22;10137;49.406;19.484;2023-05-07T06:11:26;10.20;99.90
19952;DHT22;10137;49.406;19.484;2023-05-07T06:13:56;10.20;99.90
19952;DHT22;10137;49.406;19.484;2023-05-07T06:16:24;10.20;99.90
19952;DHT22;10137;49.406;19.484;2023-05-07T06:18:52;10.30;99.90
19952;DHT22;10137;49.406;19.484;2023-05-07T06:21:20;10.30;99.90
19952;DHT22;10137;49.406;19.484;2023-05-07T06:23:49;10.40;99.90
19952;DHT22;10137;49.406;19.484;2023-05-07T06:26:19;10.50;99.90
19952;DHT22;10137;49.406;19.484;2023-05-07T06:28:47;10.50;99.90
19952;DHT22;10137;49.406;19.484;2023-05-07T06:31:20;10.60;99.90
19952;DHT22;10137;49.406;19.484;2023-05-07T06:33:49;10.60;99.90
19952;DHT22;10137;49.406;19.484;2023-05-07T06:36:20;10.60;99.90
19952;DHT22;10137;49.406;19.484;2023-05-07T06:38:48;10.60;99.90
19952;DHT22;10137;49.406;19.484;2023-05-07T06:41:17;10.60;99.90
19952;DHT22;10137;49.406;19.484;2023-05-07T06:43:46;10.50;99.90
19952;DHT22;10137;49.406;19.484;2023-05-07T06:46:14;10.50;99.90
19952;DHT22;10137;49.406;19.484;2023-05-07T06:48:44;10.50;99.90
19952;DHT22;10137;49.406;19.484;2023-05-07T06:51:13;10.50;99.90
19952;DHT22;10137;49.406;19.484;2023-05-07T06:53:41;10.60;99.90
19952;DHT22;10137;49.406;19.484;2023-05-07T06:56:09;10.70;99.90
19952;DHT22;10137;49.406;19.484;2023-05-07T06:58:38;10.80;99.90
19952;DHT22;10137;49.406;19.484;2023-05-07T07:01:06;10.80;99.90
19952;DHT22;10137;49.406;19.484;2023-05-07T07:03:37;10.90;99.90
19952;DHT22;10137;49.406;19.484;2023-05-07T07:06:06;10.90;99.90
19952;DHT22;10137;49.406;19.484;2023-05-07T07:08:34;11.00;99.90
19952;DHT22;10137;49.406;19.484;2023-05-07T07:11:04;11.00;99.90
19952;DHT22;10137;49.406;19.484;2023-05-07T07:13:32;11.20;99.90
19952;DHT22;10137;49.406;19.484;2023-05-07T07:16:00;11.30;99.90
19952;DHT22;10137;49.406;19.484;2023-05-07T07:18:28;11.40;99.90
19952;DHT22;10137;49.406;19.484;2023-05-07T07:20:57;11.40;99.90
19952;DHT22;10137;49.406;19.484;2023-05-07T07:23:27;11.50;99.90
19952;DHT22;10137;49.406;19.484;2023-05-07T07:25:55;11.60;99.90
19952;DHT22;10137;49.406;19.484;2023-05-07T07:28:23;11.60;99.90
19952;DHT22;10137;49.406;19.484;2023-05-07T07:30:51;11.60;99.90
19952;DHT22;10137;49.406;19.484;2023-05-07T07:33:19;11.40;99.90
19952;DHT22;10137;49.406;19.484;2023-05-07T07:35:50;11.50;99.90
19952;DHT22;10137;49.406;19.484;2023-05-07T07:38:18;11.40;99.90
19952;DHT22;10137;49.406;19.484;2023-05-07T07:40:52;11.40;99.90
19952;DHT22;10137;49.406;19.484;2023-05-07T07:43:20;11.40;99.90
19952;DHT22;10137;49.406;19.484;2023-05-07T07:45:48;11.40;99.90
19952;DHT22;10137;49.406;19.484;2023-05-07T07:48:18;11.50;99.90
19952;DHT22;10137;49.406;19.484;2023-05-07T07:50:48;11.60;99.90
19952;DHT22;10137;49.406;19.484;2023-05-07T07:53:19;11.60;99.90
19952;DHT22;10137;49.406;19.484;2023-05-07T07:55:48;11.60;99.90
19952;DHT22;10137;49.406;19.484;2023-05-07T07:58:19;11.60;99.90
19952;DHT22;10137;49.406;19.484;2023-05-07T08:00:49;11.70;99.90
19952;DHT22;10137;49.406;19.484;2023-05-07T08:03:22;11.60;99.90
19952;DHT22;10137;49.406;19.484;2023-05-07T08:05:50;11.60;99.90
19952;DHT22;10137;49.406;19.484;2023-05-07T08:08:18;11.60;99.90
19952;DHT22;10137;49.406;19.484;2023-05-07T08:10:47;11.60;99.90
19952;DHT22;10137;49.406;19.484;2023-05-07T08:13:22;11.50;99.90
19952;DHT22;10137;49.406;19.484;2023-05-07T08:15:51;11.50;99.90
19952;DHT22;10137;49.406;19.484;2023-05-07T08:18:19;11.40;99.90
19952;DHT22;10137;49.406;19.484;2023-05-07T08:20:47;11.50;99.90
19952;DHT22;10137;49.406;19.484;2023-05-07T08:23:15;11.50;99.90
19952;DHT22;10137;49.406;19.484;2023-05-07T08:25:43;11.50;99.90
19952;DHT22;10137;49.406;19.484;2023-05-07T08:28:12;11.50;99.90
19952;DHT22;10137;49.406;19.484;2023-05-07T08:30:41;11.60;99.90
19952;DHT22;10137;49.406;19.484;2023-05-07T08:33:09;11.70;99.90
19952;DHT22;10137;49.406;19.484;2023-05-07T08:35:39;11.80;99.90
19952;DHT22;10137;49.406;19.484;2023-05-07T08:38:07;12.00;99.90
19952;DHT22;10137;49.406;19.484;2023-05-07T08:40:38;12.10;99.90
19952;DHT22;10137;49.406;19.484;2023-05-07T08:43:07;12.20;99.90
19952;DHT22;10137;49.406;19.484;2023-05-07T08:45:37;12.30;99.90
19952;DHT22;10137;49.406;19.484;2023-05-07T08:48:15;12.30;99.90
19952;DHT22;10137;49.406;19.484;2023-05-07T08:50:43;12.30;99.90
19952;DHT22;10137;49.406;19.484;2023-05-07T08:53:12;12.30;99.90
19952;DHT22;10137;49.406;19.484;2023-05-07T08:55:40;12.40;99.90
19952;DHT22;10137;49.406;19.484;2023-05-07T08:58:08;12.40;99.90
19952;DHT22;10137;49.406;19.484;2023-05-07T09:00:37;12.40;99.90
19952;DHT22;10137;49.406;19.484;2023-05-07T09:03:06;12.50;99.90
19952;DHT22;10137;49.406;19.484;2023-05-07T09:05:39;12.40;99.90
19952;DHT22;10137;49.406;19.484;2023-05-07T09:08:07;12.50;99.90
19952;DHT22;10137;49.406;19.484;2023-05-07T09:10:35;12.50;99.90
19952;DHT22;10137;49.406;19.484;2023-05-07T09:13:04;12.50;99.90
19952;DHT22;10137;49.406;19.484;2023-05-07T09:15:32;12.50;99.90
19952;DHT22;10137;49.406;19.484;2023-05-07T09:18:00;12.50;99.90
19952;DHT22;10137;49.406;19.484;2023-05-07T09:20:30;12.50;99.90
19952;DHT22;10137;49.406;19.484;2023-05-07T09:23:00;12.50;99.90
19952;DHT22;10137;49.406;19.484;2023-05-07T09:25:32;12.50;99.90
19952;DHT22;10137;49.406;19.484;2023-05-07T09:28:01;12.60;99.90
19952;DHT22;10137;49.406;19.484;2023-05-07T09:30:31;12.60;99.90
19952;DHT22;10137;49.406;19.484;2023-05-07T09:33:01;12.50;99.90
19952;DHT22;10137;49.406;19.484;2023-05-07T09:35:29;12.50;99.90
19952;DHT22;10137;49.406;19.484;2023-05-07T09:38:00;12.40;99.90
19952;DHT22;10137;49.406;19.484;2023-05-07T09:40:28;12.50;99.90
19952;DHT22;10137;49.406;19.484;2023-05-07T09:42:56;12.50;99.90
19952;DHT22;10137;49.406;19.484;2023-05-07T09:45:36;12.50;99.90
19952;DHT22;10137;49.406;19.484;2023-05-07T09:48:08;12.40;99.90
19952;DHT22;10137;49.406;19.484;2023-05-07T09:50:40;12.30;99.90
19952;DHT22;10137;49.406;19.484;2023-05-07T09:53:14;12.30;99.90
19952;DHT22;10137;49.406;19.484;2023-05-07T09:55:44;12.20;99.90
19952;DHT22;10137;49.406;19.484;2023-05-07T09:58:15;12.20;99.90
19952;DHT22;10137;49.406;19.484;2023-05-07T10:00:44;12.20;99.90
19952;DHT22;10137;49.406;19.484;2023-05-07T10:03:14;12.20;99.90
19952;DHT22;10137;49.406;19.484;2023-05-07T10:05:43;12.20;99.90
19952;DHT22;10137;49.406;19.484;2023-05-07T10:08:14;12.10;99.90
19952;DHT22;10137;49.406;19.484;2023-05-07T10:10:44;12.10;99.90
19952;DHT22;10137;49.406;19.484;2023-05-07T10:13:13;12.10;99.90
19952;DHT22;10137;49.406;19.484;2023-05-07T10:15:44;12.00;99.90
19952;DHT22;10137;49.406;19.484;2023-05-07T10:18:13;11.90;99.90
19952;DHT22;10137;49.406;19.484;2023-05-07T10:20:43;11.90;99.90
19952;DHT22;10137;49.406;19.484;2023-05-07T10:23:19;11.90;99.90
19952;DHT22;10137;49.406;19.484;2023-05-07T10:25:51;11.90;99.90
19952;DHT22;10137;49.406;19.484;2023-05-07T10:28:22;11.80;99.90
19952;DHT22;10137;49.406;19.484;2023-05-07T10:30:58;11.90;99.90
19952;DHT22;10137;49.406;19.484;2023-05-07T10:33:31;11.80;99.90
19952;DHT22;10137;49.406;19.484;2023-05-07T10:36:00;11.80;99.90
19952;DHT22;10137;49.406;19.484;2023-05-07T10:38:34;11.70;99.90
19952;DHT22;10137;49.406;19.484;2023-05-07T10:41:03;11.70;99.90
19952;DHT22;10137;49.406;19.484;2023-05-07T10:43:42;11.70;99.90
19952;DHT22;10137;49.406;19.484;2023-05-07T10:46:14;11.70;99.90
19952;DHT22;10137;49.406;19.484;2023-05-07T10:49:07;11.70;99.90
19952;DHT22;10137;49.406;19.484;2023-05-07T10:51:38;11.60;99.90
19952;DHT22;10137;49.406;19.484;2023-05-07T10:54:23;11.50;99.90
19952;DHT22;10137;49.406;19.484;2023-05-07T10:56:54;11.30;99.90
19952;DHT22;10137;49.406;19.484;2023-05-07T10:59:34;11.30;99.90
19952;DHT22;10137;49.406;19.484;2023-05-07T11:02:10;11.30;99.90
19952;DHT22;10137;49.406;19.484;2023-05-07T11:04:41;11.20;99.90
19952;DHT22;10137;49.406;19.484;2023-05-07T11:07:38;11.10;99.90
19952;DHT22;10137;49.406;19.484;2023-05-07T11:10:08;11.00;99.90
19952;DHT22;10137;49.406;19.484;2023-05-07T11:12:49;10.80;99.90
19952;DHT22;10137;49.406;19.484;2023-05-07T11:15:34;10.60;99.90
19952;DHT22;10137;49.406;19.484;2023-05-07T11:18:02;10.50;99.90
19952;DHT22;10137;49.406;19.484;2023-05-07T11:20:52;10.30;99.90
19952;DHT22;10137;49.406;19.484;2023-05-07T11:26:47;10.10;99.90
19952;DHT22;10137;49.406;19.484;2023-05-07T11:29:17;10.10;99.90
19952;DHT22;10137;49.406;19.484;2023-05-07T11:31:49;10.10;99.90
19952;DHT22;10137;49.406;19.484;2023-05-07T11:34:21;10.00;99.90
19952;DHT22;10137;49.406;19.484;2023-05-07T11:36:49;9.90;99.90
19952;DHT22;10137;49.406;19.484;2023-05-07T11:39:27;9.90;99.90
19952;DHT22;10137;49.406;19.484;2023-05-07T11:41:56;10.00;99.90
19952;DHT22;10137;49.406;19.484;2023-05-07T11:44:23;10.00;99.90
19952;DHT22;10137;49.406;19.484;2023-05-07T11:46:51;10.00;99.90
19952;DHT22;10137;49.406;19.484;2023-05-07T11:49:21;10.00;99.90
19952;DHT22;10137;49.406;19.484;2023-05-07T11:51:54;10.00;99.90
19952;DHT22;10137;49.406;19.484;2023-05-07T11:54:21;10.00;99.90
19952;DHT22;10137;49.406;19.484;2023-05-07T11:56:49;10.00;99.90
19952;DHT22;10137;49.406;19.484;2023-05-07T11:59:21;10.00;99.90
19952;DHT22;10137;49.406;19.484;2023-05-07T12:01:50;10.00;99.90
19952;DHT22;10137;49.406;19.484;2023-05-07T12:04:21;9.90;99.90
19952;DHT22;10137;49.406;19.484;2023-05-07T12:06:49;9.80;99.90
19952;DHT22;10137;49.406;19.484;2023-05-07T12:09:17;9.80;99.90
19952;DHT22;10137;49.406;19.484;2023-05-07T12:11:46;9.80;99.90
19952;DHT22;10137;49.406;19.484;2023-05-07T12:14:15;9.80;99.90
19952;DHT22;10137;49.406;19.484;2023-05-07T12:16:45;9.70;99.90
19952;DHT22;10137;49.406;19.484;2023-05-07T12:19:13;9.70;99.90
19952;DHT22;10137;49.406;19.484;2023-05-07T12:21:42;9.60;99.90
19952;DHT22;10137;49.406;19.484;2023-05-07T12:24:11;9.60;99.90
19952;DHT22;10137;49.406;19.484;2023-05-07T12:26:39;9.60;99.90
19952;DHT22;10137;49.406;19.484;2023-05-07T12:29:09;9.60;99.90
19952;DHT22;10137;49.406;19.484;2023-05-07T12:31:40;9.60;99.90
19952;DHT22;10137;49.406;19.484;2023-05-07T12:34:15;9.50;99.90
19952;DHT22;10137;49.406;19.484;2023-05-07T12:36:43;9.40;99.90
19952;DHT22;10137;49.406;19.484;2023-05-07T12:39:11;9.40;99.90
19952;DHT22;10137;49.406;19.484;2023-05-07T12:41:54;9.30;99.90
19952;DHT22;10137;49.406;19.484;2023-05-07T12:44:22;9.40;99.90
19952;DHT22;10137;49.406;19.484;2023-05-07T12:46:51;9.40;99.90
19952;DHT22;10137;49.406;19.484;2023-05-07T12:49:21;9.30;99.90
19952;DHT22;10137;49.406;19.484;2023-05-07T12:51:49;9.30;99.90
19952;DHT22;10137;49.406;19.484;2023-05-07T12:54:28;9.20;99.90
19952;DHT22;10137;49.406;19.484;2023-05-07T12:57:07;9.20;99.90
19952;DHT22;10137;49.406;19.484;2023-05-07T12:59:37;9.20;99.90
19952;DHT22;10137;49.406;19.484;2023-05-07T13:02:05;9.10;99.90
19952;DHT22;10137;49.406;19.484;2023-05-07T13:04:35;9.10;99.90
19952;DHT22;10137;49.406;19.484;2023-05-07T13:07:03;9.20;99.90
19952;DHT22;10137;49.406;19.484;2023-05-07T13:09:31;9.20;99.90
19952;DHT22;10137;49.406;19.484;2023-05-07T13:11:59;9.10;99.90
19952;DHT22;10137;49.406;19.484;2023-05-07T13:14:28;9.00;99.90
19952;DHT22;10137;49.406;19.484;2023-05-07T13:16:56;9.00;99.90
19952;DHT22;10137;49.406;19.484;2023-05-07T13:19:24;9.00;99.90
19952;DHT22;10137;49.406;19.484;2023-05-07T13:21:54;8.90;99.90
19952;DHT22;10137;49.406;19.484;2023-05-07T13:24:22;8.90;99.90
19952;DHT22;10137;49.406;19.484;2023-05-07T13:26:51;8.90;99.90
19952;DHT22;10137;49.406;19.484;2023-05-07T13:29:18;8.70;99.90
19952;DHT22;10137;49.406;19.484;2023-05-07T13:31:48;8.70;99.90
19952;DHT22;10137;49.406;19.484;2023-05-07T13:34:16;8.60;99.90
19952;DHT22;10137;49.406;19.484;2023-05-07T13:36:44;8.50;99.90
19952;DHT22;10137;49.406;19.484;2023-05-07T13:39:16;8.30;99.90
19952;DHT22;10137;49.406;19.484;2023-05-07T13:41:44;8.20;99.90
19952;DHT22;10137;49.406;19.484;2023-05-07T13:44:12;8.20;99.90
19952;DHT22;10137;49.406;19.484;2023-05-07T13:46:41;8.10;99.90
19952;DHT22;10137;49.406;19.484;2023-05-07T13:49:09;8.00;99.90
19952;DHT22;10137;49.406;19.484;2023-05-07T13:51:38;7.90;99.90
19952;DHT22;10137;49.406;19.484;2023-05-07T13:54:06;7.80;99.90
19952;DHT22;10137;49.406;19.484;2023-05-07T13:56:37;7.80;99.90
19952;DHT22;10137;49.406;19.484;2023-05-07T13:59:05;7.70;99.90
19952;DHT22;10137;49.406;19.484;2023-05-07T14:01:33;7.50;99.90
19952;DHT22;10137;49.406;19.484;2023-05-07T14:04:01;7.50;99.90
19952;DHT22;10137;49.406;19.484;2023-05-07T14:06:29;7.50;99.90
19952;DHT22;10137;49.406;19.484;2023-05-07T14:08:58;7.40;99.90
19952;DHT22;10137;49.406;19.484;2023-05-07T14:11:27;7.50;99.90
19952;DHT22;10137;49.406;19.484;2023-05-07T14:13:56;7.50;99.90
19952;DHT22;10137;49.406;19.484;2023-05-07T14:16:33;7.50;99.90
19952;DHT22;10137;49.406;19.484;2023-05-07T14:19:01;7.40;99.90
19952;DHT22;10137;49.406;19.484;2023-05-07T14:21:30;7.40;99.90
19952;DHT22;10137;49.406;19.484;2023-05-07T14:23:59;7.30;99.90
19952;DHT22;10137;49.406;19.484;2023-05-07T14:26:28;7.20;99.90
19952;DHT22;10137;49.406;19.484;2023-05-07T14:28:57;7.20;99.90
19952;DHT22;10137;49.406;19.484;2023-05-07T14:31:26;7.10;99.90
19952;DHT22;10137;49.406;19.484;2023-05-07T14:33:54;7.10;99.90
19952;DHT22;10137;49.406;19.484;2023-05-07T14:36:25;7.00;99.90
19952;DHT22;10137;49.406;19.484;2023-05-07T14:38:53;6.90;99.90
19952;DHT22;10137;49.406;19.484;2023-05-07T14:41:22;6.90;99.90
19952;DHT22;10137;49.406;19.484;2023-05-07T14:43:50;6.90;99.90
19952;DHT22;10137;49.406;19.484;2023-05-07T14:46:22;6.90;99.90
19952;DHT22;10137;49.406;19.484;2023-05-07T14:48:51;6.90;99.90
19952;DHT22;10137;49.406;19.484;2023-05-07T14:51:20;6.90;99.90
19952;DHT22;10137;49.406;19.484;2023-05-07T14:53:50;6.80;99.90
19952;DHT22;10137;49.406;19.484;2023-05-07T14:56:19;6.80;99.90
19952;DHT22;10137;49.406;19.484;2023-05-07T14:58:47;6.80;99.90
19952;DHT22;10137;49.406;19.484;2023-05-07T15:01:16;6.80;99.90
19952;DHT22;10137;49.406;19.484;2023-05-07T15:03:44;6.80;99.90
19952;DHT22;10137;49.406;19.484;2023-05-07T15:06:13;6.80;99.90
19952;DHT22;10137;49.406;19.484;2023-05-07T15:08:44;6.80;99.90
19952;DHT22;10137;49.406;19.484;2023-05-07T15:11:12;6.80;99.90
19952;DHT22;10137;49.406;19.484;2023-05-07T15:13:42;6.70;99.90
19952;DHT22;10137;49.406;19.484;2023-05-07T15:16:10;6.70;99.90
19952;DHT22;10137;49.406;19.484;2023-05-07T15:18:39;6.70;99.90
19952;DHT22;10137;49.406;19.484;2023-05-07T15:21:08;6.70;99.90
19952;DHT22;10137;49.406;19.484;2023-05-07T15:23:36;6.60;99.90
19952;DHT22;10137;49.406;19.484;2023-05-07T15:26:04;6.60;99.90
19952;DHT22;10137;49.406;19.484;2023-05-07T15:28:34;6.60;99.90
19952;DHT22;10137;49.406;19.484;2023-05-07T15:31:02;6.60;99.90
19952;DHT22;10137;49.406;19.484;2023-05-07T15:33:33;6.60;99.90
19952;DHT22;10137;49.406;19.484;2023-05-07T15:36:01;6.60;99.90
19952;DHT22;10137;49.406;19.484;2023-05-07T15:38:31;6.60;99.90